Airfield :
LOGIN :

Register | Disclaimer

   EN    FR    IT 

 










Legend :    VFR   Marginal VFR   IFR   Intensive IFR   Very Intensive IFR
Visi :
Ceiling :
>= 8 km
>= 3000ft
5 to 8 km
1000 to 3000 ft
1500m to 5 km
500 to 1000 ft
800 to 1500m
200 to 500 ft
< 800m
< 200 ft
Symbols :   Thunderstorms  Fog  Heavy snow  Heavy precipitations  Wind > 20 kt
SIGMETs :     Misc.  Thunderstorms  Icing  Turbulence  Mountain Waves  Volcanic Ashes







- Airport Elevation : 299 ft
- IATA code : EDM
- Download approach charts


LFRI - La Roche Sur Yon - Les Ajoncs

CURRENT METAR :
  • 250930Z AUTO 26004KT 220V350 9999 FEW019 23/18 Q1017 NOSIG

EXPIRED METARs :
  • 250900Z AUTO 26004KT 190V330 9999 FEW013 23/18 Q1017 NOSIG
  • 250830Z AUTO VRB02KT 9999 BKN012 22/18 Q1017 BECMG SCT020
  • 250800Z AUTO VRB02KT 9999 BKN009 21/18 Q1017 BECMG SCT020
  • 250730Z AUTO 29003KT 250V320 9999 SCT008 BKN130 20/18 Q1017 NOSIG
  • 250700Z AUTO VRB02KT 9999 SCT006 BKN140 20/18 Q1016 NOSIG

TAF AMD TAF LFRI
Valid from the 25 at 08:00 until the 26 at 06:00 UTC


250840Z 2508/2606 02004KT CAVOK
TEMPO 2508/2509 BKN009
BECMG 2509/2512 29005KT SCT020
BECMG 2521/2523 02006KT
PROB30
TEMPO 2600/2606 4000 SHRA SCT050CB
BECMG 2602/2605 04010KT
No reported NOTAMs for that airfield.



MET'MAP, your aeronautical weather chart ! - Copyright ORBIFLY December 2007 - Disclaimer

ORBIFLY MET'MAP TEAM :

Programming & Development : Alexandra Zaïnal
Concept & Development : Baudouin d'Aumeries
Co-Development & Prog : Marc-Olivier Méhu
Technical & hardware support : Manuel Goepfert

Contact : metmap@orbifly.com




SOURCES & CREDITS :

   NOAA